createdAt,value
2023-04-12T00:00:22.731Z,4.05
2023-04-12T00:02:49.541Z,3.67
2023-04-12T00:05:16.288Z,4.70
2023-04-12T00:07:43.083Z,3.35
2023-04-12T00:10:09.746Z,4.40
2023-04-12T00:12:36.630Z,3.58
2023-04-12T00:15:03.894Z,3.23
2023-04-12T00:17:31.312Z,4.25
2023-04-12T00:19:57.949Z,3.00
2023-04-12T00:22:24.544Z,5.45
2023-04-12T00:24:51.440Z,2.72
2023-04-12T00:27:18.114Z,3.50
2023-04-12T00:29:45.019Z,4.93
2023-04-12T00:32:11.884Z,4.10
2023-04-12T00:34:38.732Z,3.20
2023-04-12T00:37:05.393Z,4.28
2023-04-12T00:39:32.040Z,5.80
2023-04-12T00:41:58.686Z,3.40
2023-04-12T00:44:25.353Z,3.10
2023-04-12T00:46:52.294Z,3.88
2023-04-12T00:49:19.015Z,5.40
2023-04-12T00:51:45.895Z,7.87
2023-04-12T00:54:12.553Z,3.80
2023-04-12T00:56:39.215Z,4.53
2023-04-12T00:59:05.912Z,5.50
2023-04-12T01:01:32.797Z,3.78
2023-04-12T01:03:59.798Z,2.23
2023-04-12T01:06:26.522Z,2.75
2023-04-12T01:08:53.176Z,3.55
2023-04-12T01:11:19.853Z,3.78
2023-04-12T01:13:46.517Z,4.70
2023-04-12T01:16:13.192Z,2.60
2023-04-12T01:18:39.853Z,2.97
2023-04-12T01:21:06.710Z,3.10
2023-04-12T01:23:33.394Z,3.92
2023-04-12T01:26:00.125Z,3.47
2023-04-12T01:28:26.840Z,3.20
2023-04-12T01:30:53.540Z,4.72
2023-04-12T01:33:20.234Z,3.30
2023-04-12T01:35:46.986Z,3.35
2023-04-12T01:38:13.700Z,3.55
2023-04-12T01:40:40.382Z,3.27
2023-04-12T01:43:07.058Z,4.05
2023-04-12T01:45:33.772Z,3.97
2023-04-12T01:48:00.476Z,3.05
2023-04-12T01:50:27.193Z,3.90
2023-04-12T01:52:53.859Z,2.47
2023-04-12T01:55:20.646Z,2.47
2023-04-12T01:57:47.347Z,2.70
2023-04-12T02:00:14.045Z,3.55
2023-04-12T02:02:40.839Z,3.17
2023-04-12T02:05:07.601Z,2.97
2023-04-12T02:07:34.251Z,2.97
2023-04-12T02:10:00.937Z,3.33
2023-04-12T02:12:27.644Z,3.25
2023-04-12T02:14:54.348Z,3.97
2023-04-12T02:17:21.033Z,4.43
2023-04-12T02:19:47.721Z,1.98
2023-04-12T02:22:14.421Z,3.28
2023-04-12T02:24:41.114Z,3.75
2023-04-12T02:27:07.792Z,3.83
2023-04-12T02:29:34.482Z,2.00
2023-04-12T02:32:01.369Z,3.85
2023-04-12T02:34:28.073Z,5.63
2023-04-12T02:36:54.743Z,3.83
2023-04-12T02:39:21.411Z,2.17
2023-04-12T02:41:48.087Z,2.43
2023-04-12T02:44:14.770Z,3.42
2023-04-12T02:46:41.441Z,2.88
2023-04-12T02:49:08.112Z,3.75
2023-04-12T02:51:34.773Z,3.42
2023-04-12T02:54:01.671Z,2.90
2023-04-12T02:56:28.362Z,2.22
2023-04-12T02:58:55.017Z,2.85
2023-04-12T03:01:21.706Z,4.05
2023-04-12T03:03:48.832Z,2.95
2023-04-12T03:06:15.600Z,2.30
2023-04-12T03:08:42.481Z,3.45
2023-04-12T03:11:09.173Z,3.85
2023-04-12T03:13:35.846Z,3.40
2023-04-12T03:16:02.828Z,5.72
2023-04-12T03:18:29.566Z,2.57
2023-04-12T03:20:56.332Z,3.05
2023-04-12T03:23:23.028Z,2.08
2023-04-12T03:25:49.734Z,2.72
2023-04-12T03:28:16.616Z,8.23
2023-04-12T03:30:43.377Z,2.20
2023-04-12T03:33:10.080Z,3.15
2023-04-12T03:35:36.798Z,2.58
2023-04-12T03:38:03.509Z,4.38
2023-04-12T03:40:30.180Z,2.97
2023-04-12T03:42:56.842Z,6.47
2023-04-12T03:45:23.529Z,3.58
2023-04-12T03:47:50.253Z,2.38
2023-04-12T03:50:16.985Z,3.13
2023-04-12T03:52:43.681Z,3.97
2023-04-12T03:55:10.340Z,3.83
2023-04-12T03:57:36.997Z,5.45
2023-04-12T04:00:03.682Z,3.65
2023-04-12T04:02:30.520Z,3.50
2023-04-12T04:04:57.627Z,3.83
2023-04-12T04:07:24.319Z,2.57
2023-04-12T04:09:51.001Z,5.25
2023-04-12T04:12:17.669Z,3.85
2023-04-12T04:14:44.449Z,3.55
2023-04-12T04:17:11.177Z,7.60
2023-04-12T04:19:38.357Z,3.87
2023-04-12T04:22:05.042Z,3.80
2023-04-12T04:24:31.734Z,3.15
2023-04-12T04:26:58.415Z,6.25
2023-04-12T04:29:25.088Z,6.35
2023-04-12T04:31:51.774Z,4.47
2023-04-12T04:34:18.490Z,7.75
2023-04-12T04:36:45.214Z,6.00
2023-04-12T04:39:11.922Z,5.10
2023-04-12T04:41:38.638Z,4.70
2023-04-12T04:44:05.316Z,4.57
2023-04-12T04:46:32.207Z,4.70
2023-04-12T04:48:58.990Z,3.72
2023-04-12T04:51:25.696Z,8.90
2023-04-12T04:53:52.382Z,3.63
2023-04-12T04:56:19.031Z,3.60
2023-04-12T04:58:45.710Z,6.47
2023-04-12T05:01:12.425Z,3.60
2023-04-12T05:03:39.212Z,3.75
2023-04-12T05:06:05.950Z,4.00
2023-04-12T05:08:32.638Z,5.50
2023-04-12T05:10:59.320Z,3.78
2023-04-12T05:13:26.213Z,3.95
2023-04-12T05:15:52.893Z,5.70
2023-04-12T05:18:19.568Z,2.42
2023-04-12T05:20:46.261Z,3.67
2023-04-12T05:23:12.923Z,4.15
2023-04-12T05:25:39.608Z,4.38
2023-04-12T05:28:06.275Z,4.03
2023-04-12T05:30:33.224Z,2.55
2023-04-12T05:32:59.969Z,3.17
2023-04-12T05:35:26.672Z,3.00
2023-04-12T05:37:53.351Z,4.07
2023-04-12T05:40:20.036Z,5.05
2023-04-12T05:42:46.740Z,5.15
2023-04-12T05:45:13.447Z,5.90
2023-04-12T05:47:40.223Z,3.65
2023-04-12T05:50:07.094Z,4.05
2023-04-12T05:52:33.869Z,3.33
2023-04-12T05:55:00.553Z,4.63
2023-04-12T05:57:27.227Z,3.17
2023-04-12T05:59:53.946Z,3.55
2023-04-12T06:02:20.672Z,3.72
2023-04-12T06:04:51.149Z,7.65
2023-04-12T06:07:18.262Z,3.30
2023-04-12T06:09:44.952Z,5.57
2023-04-12T06:12:11.619Z,6.97
2023-04-12T06:14:38.309Z,12.60
2023-04-12T06:17:05.001Z,7.85
2023-04-12T06:19:31.667Z,7.05
2023-04-12T06:21:58.338Z,10.73
2023-04-12T06:24:25.014Z,16.65
2023-04-12T06:26:51.689Z,9.30
2023-04-12T06:29:18.392Z,12.70
2023-04-12T06:31:45.162Z,7.25
2023-04-12T06:34:11.916Z,8.77
2023-04-12T06:36:38.619Z,7.40
2023-04-12T06:39:05.347Z,8.95
2023-04-12T06:41:32.059Z,11.60
2023-04-12T06:43:58.948Z,10.45
2023-04-12T06:46:25.711Z,9.83
2023-04-12T06:48:52.407Z,7.45
2023-04-12T06:51:19.745Z,11.57
2023-04-12T06:53:46.404Z,7.63
2023-04-12T06:56:13.093Z,5.28
2023-04-12T06:58:39.756Z,6.97
2023-04-12T07:01:06.441Z,8.90
2023-04-12T07:03:33.253Z,10.07
2023-04-12T07:06:02.145Z,8.48
2023-04-12T07:08:32.803Z,7.40
2023-04-12T07:11:03.647Z,10.07
2023-04-12T07:13:35.424Z,6.60
2023-04-12T07:16:02.089Z,6.38
2023-04-12T07:18:28.781Z,6.70
2023-04-12T07:20:55.464Z,6.82
2023-04-12T07:23:22.134Z,6.13
2023-04-12T07:25:48.792Z,8.00
2023-04-12T07:28:15.449Z,5.90
2023-04-12T07:30:42.124Z,4.63
2023-04-12T07:33:19.060Z,7.75
2023-04-12T07:35:46.582Z,10.03
2023-04-12T07:38:14.998Z,4.35
2023-04-12T07:40:42.935Z,5.15
2023-04-12T07:43:09.614Z,8.15
2023-04-12T07:45:36.283Z,10.77
2023-04-12T07:48:02.998Z,12.47
2023-04-12T07:50:29.761Z,7.97
2023-04-12T07:52:56.457Z,5.75
2023-04-12T07:55:23.139Z,8.88
2023-04-12T07:57:49.816Z,9.82
2023-04-12T08:00:16.477Z,9.43
2023-04-12T08:02:43.276Z,8.27
2023-04-12T08:05:10.052Z,8.23
2023-04-12T08:07:36.718Z,8.35
2023-04-12T08:10:03.438Z,7.88
2023-04-12T08:12:30.146Z,11.00
2023-04-12T08:14:56.807Z,13.40
2023-04-12T08:17:23.536Z,8.48
2023-04-12T08:19:50.220Z,4.97
2023-04-12T08:22:16.902Z,14.80
2023-04-12T08:24:43.627Z,9.53
2023-04-12T08:27:10.305Z,9.75
2023-04-12T08:29:36.987Z,8.02
2023-04-12T08:32:03.689Z,6.70
2023-04-12T08:34:32.340Z,8.57
2023-04-12T08:36:59.009Z,5.43
2023-04-12T08:39:25.677Z,6.35
2023-04-12T08:41:52.363Z,8.75
2023-04-12T08:44:19.043Z,8.25
2023-04-12T08:46:45.783Z,8.98
2023-04-12T08:49:12.465Z,23.43
2023-04-12T08:51:39.149Z,13.15
2023-04-12T08:54:05.821Z,11.52
2023-04-12T08:56:32.479Z,13.88
2023-04-12T08:58:59.431Z,8.43
2023-04-12T09:01:26.157Z,9.93
2023-04-12T09:03:53.094Z,9.18
2023-04-12T09:06:19.955Z,9.70
2023-04-12T09:08:46.736Z,11.95
2023-04-12T09:11:13.464Z,21.10
2023-04-12T09:13:40.143Z,10.23
2023-04-12T09:16:06.824Z,12.63
2023-04-12T09:18:33.535Z,15.68
2023-04-12T09:21:00.239Z,13.27
2023-04-12T09:23:26.896Z,22.40
2023-04-12T09:25:53.868Z,13.20
2023-04-12T09:28:20.650Z,18.42
2023-04-12T09:30:47.347Z,22.35
2023-04-12T09:33:14.037Z,14.85
2023-04-12T09:35:40.848Z,15.10
2023-04-12T09:38:07.586Z,17.13
2023-04-12T09:40:34.249Z,13.13
2023-04-12T09:43:01.143Z,18.42
2023-04-12T09:45:27.865Z,15.80
2023-04-12T09:47:54.908Z,12.20
2023-04-12T09:50:21.692Z,13.37
2023-04-12T09:52:48.389Z,13.90
2023-04-12T09:55:15.065Z,10.77
2023-04-12T09:57:41.760Z,12.63
2023-04-12T10:00:08.473Z,13.63
2023-04-12T10:02:35.452Z,11.83
2023-04-12T10:05:02.393Z,10.20
2023-04-12T10:07:29.239Z,13.27
2023-04-12T10:09:55.918Z,12.60
2023-04-12T10:12:22.583Z,11.35
2023-04-12T10:14:49.271Z,12.50
2023-04-12T10:17:15.971Z,8.75
2023-04-12T10:19:42.696Z,12.02
2023-04-12T10:22:09.379Z,11.05
2023-04-12T10:24:36.282Z,11.82
2023-04-12T10:27:02.966Z,11.17
2023-04-12T10:29:29.618Z,6.03
2023-04-12T10:31:56.383Z,10.05
2023-04-12T10:34:23.106Z,6.38
2023-04-12T10:36:49.792Z,7.70
2023-04-12T10:39:16.517Z,7.03
2023-04-12T10:41:43.192Z,6.55
2023-04-12T10:44:09.874Z,7.93
2023-04-12T10:46:36.819Z,9.20
2023-04-12T10:49:03.539Z,5.75
2023-04-12T10:51:30.275Z,5.83
2023-04-12T10:53:56.989Z,5.80
2023-04-12T10:56:23.683Z,7.75
2023-04-12T10:58:50.437Z,5.93
2023-04-12T11:01:17.227Z,6.63
2023-04-12T11:03:44.116Z,5.23
2023-04-12T11:06:24.231Z,6.57
2023-04-12T11:08:54.050Z,6.45
2023-04-12T11:11:20.818Z,5.80
2023-04-12T11:13:47.814Z,6.22
2023-04-12T11:16:14.578Z,5.20
2023-04-12T11:18:41.506Z,3.35
2023-04-12T11:21:08.328Z,3.80
2023-04-12T11:23:35.105Z,6.05
2023-04-12T11:26:01.802Z,5.65
2023-04-12T11:28:31.174Z,4.37
2023-04-12T11:30:59.218Z,4.07
2023-04-12T11:33:25.926Z,5.25
2023-04-12T11:35:52.835Z,4.45
2023-04-12T11:38:19.520Z,3.75
2023-04-12T11:40:46.225Z,4.70
2023-04-12T11:43:12.955Z,3.97
2023-04-12T11:45:39.638Z,4.13
2023-04-12T11:48:06.370Z,5.28
2023-04-12T11:50:33.070Z,3.45
2023-04-12T11:52:59.747Z,3.50
2023-04-12T11:55:26.457Z,4.18
2023-04-12T11:57:53.110Z,3.55
2023-04-12T12:00:19.793Z,5.88
2023-04-12T12:03:03.892Z,4.13
2023-04-12T12:05:33.393Z,3.37
2023-04-12T12:08:01.341Z,5.38
2023-04-12T12:10:39.912Z,5.57
2023-04-12T12:13:10.960Z,4.25
2023-04-12T12:15:37.740Z,4.68
2023-04-12T12:18:04.535Z,4.00
2023-04-12T12:20:31.259Z,8.85
2023-04-12T12:22:57.948Z,4.65
2023-04-12T12:25:24.621Z,3.58
2023-04-12T12:27:51.317Z,3.97
2023-04-12T12:30:18.231Z,3.97
2023-04-12T12:32:44.910Z,3.45
2023-04-12T12:35:11.645Z,4.95
2023-04-12T12:37:38.324Z,4.13
2023-04-12T12:40:05.022Z,3.58
2023-04-12T12:42:31.706Z,3.20
2023-04-12T12:44:58.384Z,5.10
2023-04-12T12:47:25.481Z,3.38
2023-04-12T12:49:52.251Z,3.00
2023-04-12T12:52:18.933Z,3.75
2023-04-12T12:54:45.609Z,3.23
2023-04-12T12:57:12.277Z,3.00
2023-04-12T12:59:38.974Z,3.92
2023-04-12T13:02:05.806Z,3.50
2023-04-12T13:04:32.945Z,6.05
2023-04-12T13:06:59.677Z,3.83
2023-04-12T13:09:26.336Z,3.17
2023-04-12T13:11:53.037Z,3.17
2023-04-12T13:14:19.742Z,3.72
2023-04-12T13:16:46.587Z,2.78
2023-04-12T13:19:13.340Z,3.20
2023-04-12T13:21:40.046Z,3.78
2023-04-12T13:24:06.737Z,4.22
2023-04-12T13:26:33.638Z,4.05
2023-04-12T13:29:00.711Z,3.22
2023-04-12T13:31:27.796Z,3.97
2023-04-12T13:33:54.519Z,2.90
2023-04-12T13:36:21.276Z,3.90
2023-04-12T13:38:48.208Z,3.50
2023-04-12T13:41:14.916Z,2.75
2023-04-12T13:43:41.603Z,2.97
2023-04-12T13:46:08.285Z,3.33
2023-04-12T13:48:34.999Z,2.83
2023-04-12T13:51:01.714Z,3.78
2023-04-12T13:53:28.448Z,3.88
2023-04-12T13:55:55.364Z,3.67
2023-04-12T13:58:22.045Z,2.83
2023-04-12T14:00:48.782Z,3.17
2023-04-12T14:03:15.590Z,2.97
2023-04-12T14:05:42.276Z,2.28
2023-04-12T14:08:08.953Z,2.77
2023-04-12T14:10:35.870Z,2.53
2023-04-12T14:13:02.809Z,3.13
2023-04-12T14:15:29.497Z,2.60
2023-04-12T14:17:56.438Z,2.35
2023-04-12T14:20:23.299Z,2.60
2023-04-12T14:22:49.952Z,2.63
2023-04-12T14:25:16.626Z,2.83
2023-04-12T14:27:43.313Z,2.55
2023-04-12T14:30:10.214Z,2.40
2023-04-12T14:32:36.917Z,2.43
2023-04-12T14:35:03.827Z,2.58
2023-04-12T14:37:30.499Z,3.72
2023-04-12T14:39:57.161Z,3.53
2023-04-12T14:42:23.849Z,2.50
2023-04-12T14:44:50.508Z,2.57
2023-04-12T14:47:17.398Z,4.43
2023-04-12T14:49:44.066Z,2.78
2023-04-12T14:52:10.958Z,2.40
2023-04-12T14:54:37.664Z,2.67
2023-04-12T14:57:04.348Z,2.20
2023-04-12T14:59:31.068Z,2.63
2023-04-12T15:01:57.821Z,2.58
2023-04-12T15:04:24.670Z,2.35
2023-04-12T15:06:51.472Z,2.13
2023-04-12T15:09:18.372Z,2.30
2023-04-12T15:11:45.029Z,2.97
2023-04-12T15:14:11.704Z,3.30
2023-04-12T15:16:38.482Z,2.70
2023-04-12T15:19:13.289Z,2.45
2023-04-12T15:21:44.561Z,2.43
2023-04-12T15:24:11.261Z,2.38
2023-04-12T15:26:38.187Z,2.80
2023-04-12T15:29:04.888Z,2.97
2023-04-12T15:31:31.596Z,2.05
2023-04-12T15:33:58.673Z,2.57
2023-04-12T15:36:25.438Z,2.72
2023-04-12T15:38:52.133Z,2.15
2023-04-12T15:41:18.816Z,2.53
2023-04-12T15:43:45.493Z,2.05
2023-04-12T15:46:12.231Z,2.23
2023-04-12T15:48:39.034Z,2.33
2023-04-12T15:51:05.719Z,2.40
2023-04-12T15:53:32.620Z,2.00
2023-04-12T15:55:59.314Z,2.22
2023-04-12T15:58:26.284Z,2.13
2023-04-12T16:00:53.006Z,3.03
2023-04-12T16:03:19.797Z,2.45
2023-04-12T16:05:46.660Z,2.38
2023-04-12T16:08:13.331Z,2.47
2023-04-12T16:10:40.009Z,2.63
2023-04-12T16:13:06.698Z,2.47
2023-04-12T16:15:33.621Z,2.08
2023-04-12T16:18:00.328Z,1.77
2023-04-12T16:20:27.018Z,1.75
2023-04-12T16:22:53.665Z,2.00
2023-04-12T16:25:20.333Z,2.53
2023-04-12T16:27:47.238Z,2.00
2023-04-12T16:30:13.918Z,2.05
2023-04-12T16:32:40.634Z,2.10
2023-04-12T16:35:07.324Z,2.20
2023-04-12T16:37:33.974Z,1.83
2023-04-12T16:40:00.667Z,2.00
2023-04-12T16:42:27.408Z,2.10
2023-04-12T16:44:54.299Z,2.38
2023-04-12T16:47:21.068Z,2.07
2023-04-12T16:49:47.840Z,2.00
2023-04-12T16:52:14.520Z,2.17
2023-04-12T16:54:41.193Z,1.95
2023-04-12T16:57:07.891Z,1.60
2023-04-12T16:59:34.573Z,2.87
2023-04-12T17:02:01.536Z,1.70
2023-04-12T17:04:28.416Z,1.98
2023-04-12T17:06:55.284Z,2.40
2023-04-12T17:09:21.958Z,2.05
2023-04-12T17:11:48.648Z,2.10
2023-04-12T17:14:15.327Z,2.25
2023-04-12T17:16:42.112Z,1.90
2023-04-12T17:19:10.564Z,2.15
2023-04-12T17:21:37.441Z,1.90
2023-04-12T17:24:04.112Z,2.07
2023-04-12T17:26:30.779Z,1.90
2023-04-12T17:28:58.189Z,1.92
2023-04-12T17:31:24.882Z,2.08
2023-04-12T17:33:51.554Z,2.00
2023-04-12T17:36:18.215Z,1.80
2023-04-12T17:38:44.887Z,1.52
2023-04-12T17:41:11.568Z,1.27
2023-04-12T17:43:38.261Z,1.83
2023-04-12T17:46:05.203Z,1.80
2023-04-12T17:48:31.903Z,1.60
2023-04-12T17:50:58.586Z,1.92
2023-04-12T17:53:25.242Z,1.98
2023-04-12T17:55:51.928Z,1.38
2023-04-12T17:58:18.634Z,1.50
2023-04-12T18:00:45.336Z,1.70
2023-04-12T18:03:12.420Z,1.50
2023-04-12T18:05:39.168Z,2.15
2023-04-12T18:08:05.860Z,1.75
2023-04-12T18:10:32.554Z,1.80
2023-04-12T18:12:59.238Z,1.97
2023-04-12T18:15:25.909Z,1.52
2023-04-12T18:17:52.790Z,2.63
2023-04-12T18:20:19.508Z,2.00
2023-04-12T18:22:46.223Z,1.70
2023-04-12T18:25:12.924Z,1.97
2023-04-12T18:27:39.844Z,2.13
2023-04-12T18:30:06.533Z,1.75
2023-04-12T18:32:33.305Z,2.08
2023-04-12T18:35:00.010Z,2.38
2023-04-12T18:37:26.681Z,2.17
2023-04-12T18:39:53.567Z,2.80
2023-04-12T18:42:20.270Z,2.95
2023-04-12T18:44:47.177Z,2.28
2023-04-12T18:47:13.828Z,1.98
2023-04-12T18:49:40.489Z,1.93
2023-04-12T18:52:07.217Z,1.92
2023-04-12T18:54:34.223Z,1.83
2023-04-12T18:57:01.133Z,1.52
2023-04-12T18:59:27.876Z,1.83
2023-04-12T19:01:54.633Z,1.93
2023-04-12T19:04:21.655Z,2.17
2023-04-12T19:06:48.454Z,2.35
2023-04-12T19:09:15.131Z,1.98
2023-04-12T19:11:41.776Z,1.58
2023-04-12T19:14:08.681Z,2.00
2023-04-12T19:16:35.409Z,2.10
2023-04-12T19:19:02.280Z,2.38
2023-04-12T19:21:28.993Z,1.90
2023-04-12T19:23:55.880Z,1.58
2023-04-12T19:26:22.674Z,2.07
2023-04-12T19:28:49.370Z,1.90
2023-04-12T19:31:16.095Z,1.98
2023-04-12T19:33:42.795Z,2.58
2023-04-12T19:36:09.681Z,2.28
2023-04-12T19:38:36.365Z,2.23
2023-04-12T19:41:03.034Z,1.80
2023-04-12T19:43:29.698Z,2.33
2023-04-12T19:45:56.415Z,2.22
2023-04-12T19:48:23.148Z,1.95
2023-04-12T19:50:49.814Z,1.73
2023-04-12T19:53:16.525Z,2.17
2023-04-12T19:55:43.219Z,1.42
2023-04-12T19:58:09.912Z,1.73
2023-04-12T20:00:36.606Z,1.70
2023-04-12T20:03:03.385Z,1.37
2023-04-12T20:05:30.092Z,2.63
2023-04-12T20:07:57.043Z,1.88
2023-04-12T20:10:23.735Z,1.35
2023-04-12T20:12:50.421Z,1.77
2023-04-12T20:15:17.097Z,1.20
2023-04-12T20:17:43.870Z,1.70
2023-04-12T20:20:10.843Z,1.77
2023-04-12T20:22:37.526Z,1.30
2023-04-12T20:25:04.185Z,1.10
2023-04-12T20:27:32.311Z,2.00
2023-04-12T20:29:59.092Z,1.60
2023-04-12T20:32:25.994Z,1.33
2023-04-12T20:34:52.656Z,1.05
2023-04-12T20:37:19.309Z,1.70
2023-04-12T20:39:45.996Z,1.37
2023-04-12T20:42:12.694Z,1.30
2023-04-12T20:44:39.361Z,2.05
2023-04-12T20:47:06.247Z,1.52
2023-04-12T20:49:32.901Z,1.98
2023-04-12T20:51:59.554Z,1.30
2023-04-12T20:54:26.220Z,1.55
2023-04-12T20:56:52.923Z,1.77
2023-04-12T20:59:19.612Z,1.30
2023-04-12T21:01:46.366Z,1.23
2023-04-12T21:04:13.197Z,1.83
2023-04-12T21:06:39.901Z,1.25
2023-04-12T21:09:06.807Z,1.77
2023-04-12T21:11:33.510Z,1.23
2023-04-12T21:14:00.200Z,1.48
2023-04-12T21:16:26.890Z,1.10
2023-04-12T21:18:53.595Z,1.48
2023-04-12T21:21:20.301Z,1.40
2023-04-12T21:23:46.987Z,1.60
2023-04-12T21:26:13.882Z,1.10
2023-04-12T21:28:40.569Z,1.70
2023-04-12T21:31:07.312Z,1.35
2023-04-12T21:33:34.017Z,1.13
2023-04-12T21:36:00.698Z,2.20
2023-04-12T21:38:27.400Z,1.27
2023-04-12T21:40:54.066Z,0.80
2023-04-12T21:43:20.743Z,1.08
2023-04-12T21:45:47.441Z,1.10
2023-04-12T21:48:14.182Z,1.80
2023-04-12T21:50:40.872Z,1.10
2023-04-12T21:53:07.576Z,1.83
2023-04-12T21:55:34.281Z,1.25
2023-04-12T21:58:01.177Z,1.33
2023-04-12T22:00:27.846Z,0.95
2023-04-12T22:02:54.581Z,1.40
2023-04-12T22:05:21.304Z,1.10
2023-04-12T22:07:47.985Z,1.00
2023-04-12T22:10:14.670Z,1.33
2023-04-12T22:12:41.365Z,1.08
2023-04-12T22:15:08.058Z,0.80
2023-04-12T22:17:34.729Z,1.10
2023-04-12T22:20:01.505Z,0.93
2023-04-12T22:22:28.221Z,1.95
2023-04-12T22:24:55.095Z,0.93
2023-04-12T22:27:21.754Z,1.45
2023-04-12T22:29:48.521Z,1.90
2023-04-12T22:32:15.212Z,1.55
2023-04-12T22:34:41.928Z,1.77
2023-04-12T22:37:08.659Z,1.02
2023-04-12T22:39:35.343Z,1.65
2023-04-12T22:42:02.162Z,1.07
2023-04-12T22:44:28.968Z,1.20
2023-04-12T22:46:55.652Z,1.10
2023-04-12T22:49:22.359Z,1.10
2023-04-12T22:51:49.483Z,1.90
2023-04-12T22:54:16.135Z,0.90
2023-04-12T22:56:42.811Z,1.15
2023-04-12T22:59:09.617Z,1.50
2023-04-12T23:01:36.395Z,1.05
2023-04-12T23:04:03.152Z,1.35
2023-04-12T23:06:29.985Z,0.50
2023-04-12T23:08:56.688Z,0.95
2023-04-12T23:11:23.369Z,1.35
2023-04-12T23:13:50.026Z,1.98
2023-04-12T23:16:16.685Z,0.90
2023-04-12T23:18:43.393Z,1.00
2023-04-12T23:21:10.061Z,1.08
2023-04-12T23:23:36.877Z,1.58
2023-04-12T23:26:03.545Z,1.10
2023-04-12T23:28:30.201Z,2.03
2023-04-12T23:30:56.867Z,1.63
2023-04-12T23:33:23.566Z,0.93
2023-04-12T23:35:50.244Z,1.30
2023-04-12T23:38:16.917Z,1.88
2023-04-12T23:40:43.615Z,1.52
2023-04-12T23:43:10.312Z,1.00
2023-04-12T23:45:37.008Z,1.05
2023-04-12T23:48:03.691Z,1.48
2023-04-12T23:50:30.348Z,1.17
2023-04-12T23:52:57.004Z,1.27
2023-04-12T23:55:23.671Z,1.07
2023-04-12T23:57:50.359Z,1.50
